Time;durP1;ratioP1;P1;durP2;ratioP2;P2;SDS_P1;SDS_P2;PMS_P1;PMS_P2;Temp;Humidity;BMP_temperature;BMP_pressure;BME280_temperature;BME280_humidity;BME280_pressure;Samples;Min_cycle;Max_cycle;Signal;HPM_P1;HPM_P2
2021/07/25 00:01:00;;;;;;;8.73;4.70;;;19.10;99.90;18.60;96448.00;;;;5067710;28;20579;-68
2021/07/25 00:03:49;;;;;;;6.93;4.13;;;19.00;99.90;18.40;96456.00;;;;5068674;28;20231;-70
2021/07/25 00:06:49;;;;;;;4.73;3.87;;;18.90;99.90;18.50;96477.00;;;;5071234;28;20223;-67
2021/07/25 00:09:38;;;;;;;6.47;4.77;;;18.90;99.90;18.50;96479.00;;;;5070642;28;20537;-69
2021/07/25 00:12:28;;;;;;;5.50;4.30;;;18.80;99.90;18.50;96461.00;;;;5091637;28;20244;-69
2021/07/25 00:15:17;;;;;;;6.63;4.57;;;18.80;99.90;18.50;96464.00;;;;5093912;28;20285;-68
2021/07/25 00:18:06;;;;;;;7.63;4.93;;;18.80;99.90;18.50;96459.00;;;;5097117;28;20227;-68
2021/07/25 00:20:55;;;;;;;6.97;4.43;;;18.80;99.90;18.40;96454.00;;;;5082887;28;20700;-69
2021/07/25 00:23:47;;;;;;;9.37;4.63;;;18.80;99.90;18.30;96450.00;;;;5070468;28;20243;-69
2021/07/25 00:26:37;;;;;;;8.73;5.00;;;18.70;99.90;18.00;96447.00;;;;5071146;28;20203;-68
2021/07/25 00:29:30;;;;;;;5.97;4.47;;;18.60;99.90;17.80;96449.00;;;;5075521;28;20200;-69
2021/07/25 00:32:19;;;;;;;7.27;5.17;;;18.50;99.90;18.00;96445.00;;;;5070198;28;20215;-68
2021/07/25 00:35:09;;;;;;;7.57;4.30;;;18.40;99.90;18.00;96443.00;;;;5070659;28;20203;-68
2021/07/25 00:37:58;;;;;;;6.63;4.30;;;18.40;99.90;18.10;96444.00;;;;5069516;28;20695;-69
2021/07/25 00:40:51;;;;;;;5.67;4.70;;;18.40;99.90;18.00;96430.00;;;;5090577;28;20191;-68
2021/07/25 00:43:41;;;;;;;5.53;4.90;;;18.40;99.90;17.90;96422.00;;;;5077125;28;20234;-69
2021/07/25 00:46:31;;;;;;;10.70;4.70;;;18.30;99.90;18.00;96415.00;;;;5070696;28;20219;-69
2021/07/25 00:49:20;;;;;;;6.03;4.17;;;18.30;99.90;17.90;96416.00;;;;5069226;28;20212;-69
2021/07/25 00:52:09;;;;;;;6.57;4.50;;;18.30;99.90;17.80;96412.00;;;;5084006;28;20199;-69
2021/07/25 00:55:01;;;;;;;6.93;4.33;;;18.20;99.90;17.80;96412.00;;;;5077019;28;20274;-68
2021/07/25 00:57:50;;;;;;;7.10;4.70;;;18.20;99.90;17.80;96415.00;;;;5070193;28;20602;-68
2021/07/25 01:00:39;;;;;;;5.80;4.13;;;18.20;99.90;17.70;96417.00;;;;5070289;28;20211;-69
2021/07/25 01:03:45;;;;;;;5.53;4.80;;;18.10;99.90;17.60;96423.00;;;;5068285;28;20256;-69
2021/07/25 01:06:50;;;;;;;5.83;4.87;;;18.10;99.90;17.60;96414.00;;;;5070189;28;20211;-69
2021/07/25 01:09:50;;;;;;;5.37;4.03;;;18.00;99.90;17.70;96401.00;;;;5069176;28;20191;-69
2021/07/25 01:12:44;;;;;;;5.87;4.47;;;18.00;99.90;17.80;96405.00;;;;5069464;28;20204;-69
2021/07/25 01:15:34;;;;;;;3.67;3.20;;;18.00;99.90;17.80;96403.00;;;;5069859;28;20211;-69
2021/07/25 01:18:23;;;;;;;4.00;3.07;;;18.00;99.90;17.80;96409.00;;;;5068292;28;20285;-69
2021/07/25 01:21:15;;;;;;;5.50;3.60;;;18.10;99.90;17.80;96398.00;;;;5070263;28;20685;-69
2021/07/25 01:24:04;;;;;;;6.63;3.77;;;18.10;99.90;17.80;96408.00;;;;5078733;28;20264;-69
2021/07/25 01:26:53;;;;;;;5.80;3.67;;;18.10;99.90;17.80;96399.00;;;;5081860;28;20606;-69
2021/07/25 01:29:50;;;;;;;5.07;4.17;;;18.10;99.90;17.80;96406.00;;;;5069403;28;20200;-69
2021/07/25 01:32:42;;;;;;;7.13;3.83;;;18.10;99.90;17.70;96411.00;;;;5069433;28;20695;-69
2021/07/25 01:35:32;;;;;;;4.23;3.83;;;18.10;99.90;17.80;96404.00;;;;5069848;28;20203;-69
2021/07/25 01:38:24;;;;;;;3.77;3.40;;;18.10;99.90;17.80;96404.00;;;;5067918;28;20686;-69
2021/07/25 01:41:16;;;;;;;6.30;3.40;;;18.00;99.90;17.90;96396.00;;;;5068593;28;20204;-69
2021/07/25 01:44:05;;;;;;;3.27;2.97;;;18.10;99.90;17.90;96401.00;;;;5068880;28;20787;-68
2021/07/25 01:46:54;;;;;;;3.20;2.83;;;18.10;99.90;17.70;96399.00;;;;5078181;28;20226;-68
2021/07/25 01:49:43;;;;;;;2.50;2.30;;;18.10;99.90;17.70;96411.00;;;;5074175;28;20206;-68
2021/07/25 01:52:34;;;;;;;3.20;2.83;;;18.00;99.90;17.70;96415.00;;;;5078821;28;20211;-68
2021/07/25 01:55:25;;;;;;;4.17;3.60;;;18.10;99.90;17.60;96425.00;;;;5070936;28;20192;-68
2021/07/25 01:58:14;;;;;;;3.77;3.47;;;18.00;99.90;17.70;96431.00;;;;5068410;28;20232;-70
2021/07/25 02:01:03;;;;;;;4.67;4.17;;;18.00;99.90;17.70;96423.00;;;;5068499;28;20227;-68
2021/07/25 02:03:52;;;;;;;5.20;3.80;;;18.00;99.90;17.70;96424.00;;;;5067630;28;20630;-69
2021/07/25 02:06:41;;;;;;;3.90;3.50;;;18.00;99.90;17.70;96420.00;;;;5066888;28;20572;-69
2021/07/25 02:09:32;;;;;;;3.50;2.73;;;18.00;99.90;17.70;96413.00;;;;5067017;28;20219;-68
2021/07/25 02:12:22;;;;;;;5.63;4.23;;;18.00;99.90;17.70;96416.00;;;;5067526;28;20215;-68
2021/07/25 02:15:12;;;;;;;5.50;3.60;;;18.00;99.90;17.50;96421.00;;;;5081031;28;20204;-68
2021/07/25 02:18:01;;;;;;;5.80;4.27;;;18.00;99.90;17.50;96426.00;;;;5083614;28;20606;-68
2021/07/25 02:20:50;;;;;;;5.43;3.00;;;17.90;99.90;17.60;96424.00;;;;5076078;28;20211;-68
2021/07/25 02:23:39;;;;;;;3.13;2.83;;;17.90;99.90;17.50;96427.00;;;;5067828;28;20231;-69
2021/07/25 02:26:28;;;;;;;4.03;3.63;;;17.90;99.90;17.60;96437.00;;;;5066703;28;20227;-68
2021/07/25 02:29:18;;;;;;;3.50;2.60;;;17.90;99.90;17.50;96447.00;;;;5066414;28;20702;-68
2021/07/25 02:32:08;;;;;;;3.50;2.73;;;17.80;99.90;17.50;96449.00;;;;5067472;28;20204;-68
2021/07/25 02:34:57;;;;;;;2.93;2.73;;;17.80;99.90;17.50;96442.00;;;;5068338;28;20334;-68
2021/07/25 02:37:45;;;;;;;4.00;3.60;;;17.80;99.90;17.50;96435.00;;;;5068866;28;20227;-68
2021/07/25 02:40:34;;;;;;;3.43;3.13;;;17.80;99.90;17.50;96430.00;;;;5075711;28;20250;-68
2021/07/25 02:43:23;;;;;;;2.97;2.30;;;17.80;99.90;17.50;96444.00;;;;5066457;28;20204;-68
2021/07/25 02:46:13;;;;;;;3.73;2.90;;;17.80;99.90;17.50;96438.00;;;;5087526;28;20674;-68
2021/07/25 02:49:03;;;;;;;7.03;3.00;;;17.80;99.90;17.40;96454.00;;;;5087426;28;20203;-68
2021/07/25 02:51:53;;;;;;;3.30;3.00;;;17.80;99.90;17.40;96438.00;;;;5083617;28;20215;-68
2021/07/25 02:54:42;;;;;;;3.90;2.93;;;17.70;99.90;17.30;96436.00;;;;5076831;28;20200;-69
2021/07/25 02:57:31;;;;;;;5.80;3.50;;;17.70;99.90;17.30;96428.00;;;;5074285;28;20239;-68
2021/07/25 03:00:21;;;;;;;3.13;2.90;;;17.70;99.90;17.30;96419.00;;;;5069625;28;20210;-68
2021/07/25 03:03:11;;;;;;;4.27;2.87;;;17.70;99.90;17.20;96418.00;;;;5087115;28;20199;-68
2021/07/25 03:06:00;;;;;;;5.80;3.80;;;17.60;99.90;17.10;96423.00;;;;5076957;28;20207;-68
2021/07/25 03:08:49;;;;;;;4.17;3.13;;;17.60;99.90;17.10;96410.00;;;;5067169;28;20208;-68
2021/07/25 03:11:39;;;;;;;5.30;4.80;;;17.50;99.90;17.00;96418.00;;;;5082861;28;20208;-68
2021/07/25 03:14:28;;;;;;;2.80;2.60;;;17.50;99.90;16.90;96420.00;;;;5080641;28;20211;-68
2021/07/25 03:17:17;;;;;;;3.60;3.30;;;17.40;99.90;16.90;96419.00;;;;5078347;28;20251;-69
2021/07/25 03:20:09;;;;;;;5.63;4.20;;;17.30;99.90;16.90;96410.00;;;;5066900;28;20212;-68
2021/07/25 03:22:58;;;;;;;3.37;3.07;;;17.30;99.90;16.90;96418.00;;;;5067660;28;20208;-68
2021/07/25 03:25:47;;;;;;;4.47;3.37;;;17.30;99.90;16.80;96417.00;;;;5065361;28;20231;-68
2021/07/25 03:28:36;;;;;;;3.77;3.47;;;17.20;99.90;16.60;96419.00;;;;5066311;28;20234;-69
2021/07/25 03:31:24;;;;;;;5.47;3.50;;;17.20;99.90;16.60;96420.00;;;;5066399;28;20345;-69
2021/07/25 03:34:13;;;;;;;3.13;2.83;;;17.10;99.90;16.60;96424.00;;;;5085919;28;20205;-69
2021/07/25 03:37:04;;;;;;;3.47;3.17;;;17.10;99.90;16.60;96424.00;;;;5066695;28;20724;-68
2021/07/25 03:39:54;;;;;;;5.07;2.87;;;17.00;99.90;16.60;96423.00;;;;5064857;28;20195;-67
2021/07/25 03:42:43;;;;;;;3.00;2.80;;;17.00;99.90;16.50;96417.00;;;;5087033;28;20199;-67
2021/07/25 03:45:32;;;;;;;3.77;3.30;;;17.00;99.90;16.50;96414.00;;;;5073619;28;20232;-68
2021/07/25 03:48:21;;;;;;;3.37;3.07;;;16.90;99.90;16.50;96419.00;;;;5067063;28;20235;-68
2021/07/25 03:51:12;;;;;;;4.30;3.10;;;16.90;99.90;16.40;96426.00;;;;5084739;28;20686;-67
2021/07/25 03:54:04;;;;;;;5.40;3.23;;;16.90;99.90;16.50;96421.00;;;;5081413;28;20229;-67
2021/07/25 03:56:53;;;;;;;7.80;3.23;;;16.90;99.90;16.30;96430.00;;;;5066480;28;20704;-67
2021/07/25 03:59:43;;;;;;;2.80;2.60;;;16.80;99.90;16.30;96434.00;;;;5074487;28;20733;-69
2021/07/25 04:02:32;;;;;;;3.43;3.03;;;16.70;99.90;16.40;96433.00;;;;5067199;28;20578;-68
2021/07/25 04:05:21;;;;;;;5.17;3.97;;;16.70;99.90;16.50;96432.00;;;;5076068;28;20604;-67
2021/07/25 04:08:11;;;;;;;5.50;3.60;;;16.70;99.90;16.40;96438.00;;;;5067279;28;20698;-67
2021/07/25 04:11:03;;;;;;;4.70;2.70;;;16.80;99.90;16.30;96441.00;;;;5086820;28;20207;-67
2021/07/25 04:13:52;;;;;;;4.60;3.03;;;16.70;99.90;16.40;96449.00;;;;5066058;28;20218;-69
2021/07/25 04:16:41;;;;;;;3.40;3.10;;;16.70;99.90;16.50;96442.00;;;;5071421;28;20203;-69
2021/07/25 04:19:30;;;;;;;2.70;2.50;;;16.80;99.90;16.60;96458.00;;;;5069801;28;20207;-69
2021/07/25 04:22:19;;;;;;;4.23;2.50;;;16.80;99.90;16.60;96462.00;;;;5066298;28;20215;-69
2021/07/25 04:25:09;;;;;;;3.67;2.80;;;16.90;99.90;16.70;96460.00;;;;5066120;28;20235;-67
2021/07/25 04:28:01;;;;;;;4.67;2.50;;;16.90;99.90;16.70;96455.00;;;;5068646;28;20332;-68
2021/07/25 04:30:50;;;;;;;4.53;2.70;;;16.90;99.90;16.80;96457.00;;;;5067060;28;20687;-68
2021/07/25 04:33:43;;;;;;;3.30;2.97;;;17.00;99.90;16.80;96468.00;;;;5064312;28;20200;-68
2021/07/25 04:36:32;;;;;;;4.67;2.80;;;17.00;99.90;16.90;96453.00;;;;5064291;28;20196;-68
2021/07/25 04:39:22;;;;;;;3.20;2.87;;;17.10;99.90;16.90;96452.00;;;;5064863;28;20204;-68
2021/07/25 04:42:11;;;;;;;4.33;3.60;;;17.10;99.90;16.90;96468.00;;;;5064550;28;20694;-68
2021/07/25 04:45:05;;;;;;;4.23;3.17;;;17.20;99.90;16.90;96467.00;;;;5074421;28;20223;-68
2021/07/25 04:48:06;;;;;;;4.10;2.83;;;17.20;99.90;16.80;96462.00;;;;5064114;28;20224;-68
2021/07/25 04:51:04;;;;;;;6.13;2.50;;;17.20;99.90;16.90;96463.00;;;;5082232;28;20264;-68
2021/07/25 04:53:57;;;;;;;6.63;3.40;;;17.20;99.90;17.20;96471.00;;;;5082695;28;20214;-69
2021/07/25 04:57:00;;;;;;;3.30;2.60;;;17.30;99.90;17.40;96462.00;;;;5077776;28;21100;-68
2021/07/25 04:59:51;;;;;;;4.57;2.87;;;17.40;99.90;17.60;96475.00;;;;5074483;28;20342;-68
2021/07/25 05:02:44;;;;;;;3.30;3.00;;;17.50;99.90;17.70;96453.00;;;;5073612;28;20211;-67
2021/07/25 05:05:35;;;;;;;3.20;2.90;;;17.60;99.90;17.90;96452.00;;;;5068000;28;20608;-68
2021/07/25 05:08:24;;;;;;;2.70;2.30;;;17.80;99.90;17.70;96444.00;;;;5067299;28;20585;-68
2021/07/25 05:11:18;;;;;;;4.17;2.03;;;17.90;99.90;17.50;96438.00;;;;5069053;28;20196;-68
2021/07/25 05:14:13;;;;;;;5.13;2.83;;;17.90;99.90;17.60;96441.00;;;;5066929;28;20237;-68
2021/07/25 05:17:13;;;;;;;4.33;2.63;;;17.90;99.90;17.80;96452.00;;;;5067796;28;20285;-68
2021/07/25 05:20:08;;;;;;;2.80;2.50;;;17.90;99.90;17.80;96438.00;;;;5067708;28;20207;-68
2021/07/25 05:23:03;;;;;;;3.83;3.03;;;18.00;99.90;18.00;96442.00;;;;5068416;28;20702;-68
2021/07/25 05:25:55;;;;;;;3.70;3.00;;;18.10;99.90;17.90;96451.00;;;;5069814;28;20310;-67
2021/07/25 05:28:46;;;;;;;4.63;2.70;;;18.20;99.90;18.00;96458.00;;;;5068685;28;20223;-67
2021/07/25 05:31:36;;;;;;;3.07;2.40;;;18.30;99.90;18.00;96453.00;;;;5067779;28;20717;-67
2021/07/25 05:34:24;;;;;;;3.10;2.80;;;18.30;99.90;18.20;96454.00;;;;5068680;28;20223;-67
2021/07/25 05:37:15;;;;;;;3.67;3.13;;;18.30;99.90;18.30;96461.00;;;;5079845;28;20226;-68
2021/07/25 05:40:04;;;;;;;5.27;3.80;;;18.40;99.90;18.40;96458.00;;;;5081222;28;20736;-68
2021/07/25 05:42:53;;;;;;;5.97;3.40;;;18.50;99.90;18.50;96457.00;;;;5070120;28;20204;-70
2021/07/25 05:45:43;;;;;;;4.83;3.13;;;18.60;99.90;18.50;96459.00;;;;5068158;28;20235;-68
2021/07/25 05:48:32;;;;;;;5.00;2.80;;;18.60;99.90;18.60;96458.00;;;;5068508;28;20228;-68
2021/07/25 05:51:20;;;;;;;3.67;3.37;;;18.70;99.90;18.60;96454.00;;;;5074073;28;20200;-67
2021/07/25 05:54:11;;;;;;;5.97;3.53;;;18.80;99.90;18.70;96456.00;;;;5081575;28;20207;-67
2021/07/25 05:57:00;;;;;;;3.73;3.43;;;18.80;99.90;18.80;96446.00;;;;5066580;28;20230;-67
2021/07/25 05:59:49;;;;;;;3.93;3.57;;;18.90;99.90;19.00;96450.00;;;;5066508;28;20589;-69
2021/07/25 06:02:53;;;;;;;4.53;3.27;;;19.00;99.90;19.00;96454.00;;;;5066302;28;20337;-71
2021/07/25 06:05:42;;;;;;;5.23;3.73;;;19.10;99.90;19.20;96454.00;;;;5067715;28;20219;-69
2021/07/25 06:08:31;;;;;;;5.73;4.10;;;19.20;99.90;19.20;96461.00;;;;5070743;28;21216;-72
2021/07/25 06:11:25;;;;;;;4.57;3.87;;;19.30;99.90;19.40;96455.00;;;;5073448;28;20200;-72
2021/07/25 06:14:14;;;;;;;5.43;3.90;;;19.40;99.90;19.50;96464.00;;;;5067919;28;20196;-71
2021/07/25 06:17:03;;;;;;;4.63;4.00;;;19.60;99.90;19.60;96460.00;;;;5066899;28;20292;-71
2021/07/25 06:19:52;;;;;;;4.20;3.80;;;19.70;99.90;19.80;96457.00;;;;5086886;28;20199;-71
2021/07/25 06:22:44;;;;;;;5.03;4.40;;;19.80;99.90;20.00;96468.00;;;;5086541;28;20226;-71
2021/07/25 06:25:34;;;;;;;5.20;4.43;;;19.90;99.90;19.80;96469.00;;;;5082789;28;20231;-69
2021/07/25 06:28:25;;;;;;;4.83;4.07;;;20.00;99.90;19.80;96464.00;;;;5080148;28;20224;-69
2021/07/25 06:31:14;;;;;;;4.07;3.63;;;20.00;99.90;20.00;96451.00;;;;5078806;28;20202;-69
2021/07/25 06:34:03;;;;;;;4.80;3.70;;;20.10;99.90;20.20;96450.00;;;;5074824;28;20250;-69
2021/07/25 06:36:52;;;;;;;4.23;3.67;;;20.20;99.90;20.30;96456.00;;;;5067665;28;20711;-69
2021/07/25 06:39:41;;;;;;;6.57;4.13;;;20.30;99.90;20.60;96453.00;;;;5083190;28;20684;-69
2021/07/25 06:42:29;;;;;;;4.73;3.70;;;20.50;99.90;20.60;96460.00;;;;5096219;28;20698;-68
2021/07/25 06:45:20;;;;;;;6.17;3.83;;;20.60;99.90;20.50;96448.00;;;;5067611;28;20199;-69
2021/07/25 06:48:18;;;;;;;4.63;4.20;;;20.70;99.90;20.50;96446.00;;;;5086275;28;20219;-69
2021/07/25 06:51:07;;;;;;;3.37;3.07;;;20.70;99.90;20.60;96450.00;;;;5093865;28;20214;-69
2021/07/25 06:53:56;;;;;;;4.10;3.00;;;20.80;99.90;20.90;96444.00;;;;5089756;28;20211;-70
2021/07/25 06:56:45;;;;;;;5.93;4.40;;;20.80;99.90;21.00;96446.00;;;;5087085;28;20270;-67
2021/07/25 06:59:34;;;;;;;4.37;3.53;;;20.90;99.90;21.00;96451.00;;;;5066115;28;20196;-69
2021/07/25 07:02:26;;;;;;;4.63;3.63;;;21.00;99.90;21.10;96448.00;;;;5072983;28;20277;-68
2021/07/25 07:05:16;;;;;;;4.20;3.80;;;21.10;99.90;21.00;96444.00;;;;5077534;28;20590;-69
2021/07/25 07:08:07;;;;;;;3.67;3.33;;;21.20;99.90;21.30;96452.00;;;;5081504;28;20342;-69
2021/07/25 07:10:56;;;;;;;7.10;3.87;;;21.20;99.90;21.60;96434.00;;;;5085824;28;20720;-69
2021/07/25 07:13:44;;;;;;;5.80;3.57;;;21.40;99.90;21.70;96443.00;;;;5081201;28;20209;-69
2021/07/25 07:16:33;;;;;;;4.17;3.60;;;21.60;99.90;22.00;96445.00;;;;5084529;28;20203;-69
2021/07/25 07:19:24;;;;;;;6.50;3.63;;;21.70;99.90;22.10;96433.00;;;;5083727;28;20336;-69
2021/07/25 07:22:26;;;;;;;5.33;3.43;;;21.80;99.90;22.20;96432.00;;;;5083459;28;20203;-70
2021/07/25 07:29:33;;;;;;;8.43;4.07;;;22.20;99.90;22.80;96434.00;;;;5084328;28;20705;-69
2021/07/25 07:32:22;;;;;;;3.87;3.50;;;22.50;99.90;22.80;96434.00;;;;5085512;28;20487;-69
2021/07/25 07:35:13;;;;;;;3.90;3.50;;;22.60;99.90;23.00;96438.00;;;;5084390;28;20203;-70
2021/07/25 07:38:02;;;;;;;4.13;3.70;;;22.80;99.90;23.30;96443.00;;;;5082998;28;20252;-69
2021/07/25 07:40:51;;;;;;;5.53;3.40;;;22.90;99.90;23.50;96427.00;;;;5083175;28;20580;-69
2021/07/25 07:43:42;;;;;;;4.70;4.00;;;23.20;99.90;23.50;96427.00;;;;5085958;28;20199;-70
2021/07/25 07:46:31;;;;;;;4.50;4.00;;;23.30;99.90;23.60;96426.00;;;;5085464;28;20712;-69
2021/07/25 07:49:20;;;;;;;5.13;3.60;;;23.40;99.90;23.70;96431.00;;;;5085596;28;20199;-69
2021/07/25 07:52:10;;;;;;;7.50;3.60;;;23.50;99.90;24.10;96433.00;;;;5084454;28;20466;-69
2021/07/25 07:54:59;;;;;;;4.40;3.47;;;23.70;99.90;24.30;96435.00;;;;5082875;28;20205;-70
2021/07/25 07:57:48;;;;;;;6.10;3.77;;;23.90;99.90;24.20;96439.00;;;;5083271;28;20226;-69
2021/07/25 08:00:37;;;;;;;3.57;3.27;;;24.00;99.90;24.10;96433.00;;;;5081463;28;20207;-70
2021/07/25 08:03:26;;;;;;;4.17;3.27;;;24.00;99.90;24.50;96437.00;;;;5080740;28;20200;-69
2021/07/25 08:06:15;;;;;;;3.30;3.00;;;24.20;99.90;24.60;96433.00;;;;5084996;28;20207;-70
2021/07/25 08:09:05;;;;;;;3.30;3.00;;;24.30;99.90;24.90;96436.00;;;;5082058;28;20206;-68
2021/07/25 08:11:54;;;;;;;6.77;4.07;;;24.50;99.90;24.80;96436.00;;;;5082344;28;20246;-68
2021/07/25 08:14:43;;;;;;;5.07;3.87;;;24.60;99.90;25.10;96431.00;;;;5084937;28;20208;-70
2021/07/25 08:17:32;;;;;;;5.40;3.90;;;24.80;99.90;25.20;96440.00;;;;5084691;28;20231;-68
2021/07/25 08:20:21;;;;;;;4.23;3.83;;;24.90;99.90;25.30;96428.00;;;;5080850;28;20278;-68
2021/07/25 08:23:10;;;;;;;5.13;4.63;;;25.10;99.90;25.40;96427.00;;;;5081818;28;20205;-69
2021/07/25 08:26:01;;;;;;;6.60;4.90;;;25.20;99.90;25.60;96419.00;;;;5086715;28;20676;-69
2021/07/25 08:28:50;;;;;;;6.03;5.33;;;25.30;99.90;25.80;96423.00;;;;5086711;28;20214;-70
2021/07/25 08:31:39;;;;;;;5.73;4.83;;;25.50;99.90;25.40;96417.00;;;;5083475;28;21335;-69
2021/07/25 08:34:28;;;;;;;6.23;5.50;;;25.60;99.90;25.50;96417.00;;;;5084016;28;20204;-70
2021/07/25 08:37:17;;;;;;;6.70;5.63;;;25.60;99.90;25.80;96417.00;;;;5086628;28;20597;-70
2021/07/25 08:40:08;;;;;;;6.27;5.63;;;25.60;99.90;26.10;96420.00;;;;5087671;28;20562;-70
2021/07/25 08:43:07;;;;;;;6.60;5.57;;;25.80;99.90;25.70;96414.00;;;;5084975;28;20195;-70
2021/07/25 08:45:56;;;;;;;7.13;6.13;;;25.80;99.90;26.00;96414.00;;;;5087230;28;20201;-70
2021/07/25 08:48:47;;;;;;;7.00;6.30;;;25.80;99.90;26.10;96416.00;;;;5086596;28;20580;-70
2021/07/25 08:51:42;;;;;;;10.20;6.77;;;25.90;99.90;26.30;96410.00;;;;5089948;28;20207;-69
2021/07/25 08:54:32;;;;;;;8.17;5.80;;;26.00;99.90;26.70;96414.00;;;;5086526;28;20204;-70
2021/07/25 08:57:24;;;;;;;6.60;5.90;;;26.20;99.90;26.90;96407.00;;;;5085354;28;20225;-70
2021/07/25 09:00:18;;;;;;;6.43;5.83;;;26.40;99.90;26.80;96421.00;;;;5088122;28;20225;-69
2021/07/25 09:03:10;;;;;;;7.00;5.73;;;26.50;99.90;26.80;96414.00;;;;5084970;28;20205;-70
2021/07/25 09:06:02;;;;;;;6.47;5.87;;;26.70;99.90;27.00;96425.00;;;;5087030;28;20460;-70
2021/07/25 09:08:52;;;;;;;7.43;6.17;;;26.70;99.90;27.10;96419.00;;;;5069811;28;20696;-69
2021/07/25 09:11:42;;;;;;;6.90;5.80;;;26.80;99.90;26.90;96408.00;;;;5070179;28;20209;-69
2021/07/25 09:14:32;;;;;;;5.63;5.13;;;26.90;99.90;27.30;96410.00;;;;5077004;28;20198;-70
2021/07/25 09:17:22;;;;;;;6.30;5.53;;;27.00;99.90;27.40;96406.00;;;;5086963;28;20222;-69
2021/07/25 09:20:19;;;;;;;6.43;5.83;;;27.10;99.90;27.60;96404.00;;;;5087815;28;20204;-68
2021/07/25 09:23:14;;;;;;;7.00;6.37;;;27.20;99.90;27.70;96405.00;;;;5079963;28;20206;-70
2021/07/25 09:26:03;;;;;;;5.57;4.97;;;27.40;99.90;27.70;96406.00;;;;5083996;28;20229;-68
2021/07/25 09:28:51;;;;;;;5.90;5.20;;;27.50;99.90;27.70;96418.00;;;;5083379;28;20219;-68
2021/07/25 09:31:40;;;;;;;6.10;5.50;;;27.50;99.90;27.00;96420.00;;;;5085882;28;20206;-68
2021/07/25 09:34:38;;;;;;;7.30;6.53;;;27.40;99.90;27.00;96411.00;;;;5090153;28;20631;-68
2021/07/25 09:37:27;;;;;;;5.57;5.07;;;27.30;99.90;26.50;96409.00;;;;5084371;28;20214;-68
2021/07/25 09:40:24;;;;;;;5.60;4.97;;;27.10;99.90;26.20;96394.00;;;;5087325;28;20208;-69
2021/07/25 09:43:16;;;;;;;6.03;5.43;;;26.90;99.90;27.00;96389.00;;;;5085436;28;20210;-68
2021/07/25 09:46:05;;;;;;;6.37;5.53;;;26.90;99.90;27.70;96392.00;;;;5083915;28;20594;-69
2021/07/25 09:48:57;;;;;;;10.73;7.13;;;27.10;99.90;27.90;96387.00;;;;5086317;28;20221;-69
2021/07/25 09:51:49;;;;;;;6.07;5.53;;;27.20;99.90;27.40;96379.00;;;;5080572;28;20211;-69
2021/07/25 09:54:37;;;;;;;5.93;4.97;;;27.30;99.90;27.80;96373.00;;;;5084365;28;20230;-70
2021/07/25 09:57:28;;;;;;;6.70;6.03;;;27.50;99.90;28.00;96368.00;;;;5088277;28;20215;-70
2021/07/25 10:00:18;;;;;;;6.20;5.63;;;27.70;99.90;28.20;96362.00;;;;5086857;28;20691;-70
2021/07/25 10:03:23;;;;;;;6.53;5.73;;;27.80;99.90;28.70;96355.00;;;;5087282;28;20287;-70
2021/07/25 10:06:23;;;;;;;8.50;5.23;;;28.00;99.90;29.20;96354.00;;;;5084375;28;20235;-70
2021/07/25 10:09:15;;;;;;;9.20;5.33;;;28.40;99.90;29.70;96359.00;;;;5082931;28;20224;-70
2021/07/25 10:12:05;;;;;;;6.40;5.50;;;28.70;99.90;29.60;96356.00;;;;5086653;28;20207;-70
2021/07/25 10:14:54;;;;;;;6.50;5.90;;;29.00;99.90;30.00;96361.00;;;;5087508;28;20625;-70
2021/07/25 10:17:45;;;;;;;6.60;5.37;;;29.30;99.90;30.30;96345.00;;;;5086040;28;20246;-70
2021/07/25 10:20:35;;;;;;;5.93;5.10;;;29.50;99.90;29.70;96348.00;;;;5089410;28;20207;-70
2021/07/25 10:23:33;;;;;;;5.70;5.20;;;29.70;96.00;30.00;96355.00;;;;5086369;28;20205;-70
2021/07/25 10:26:26;;;;;;;7.07;5.95;;;29.70;96.10;30.20;96351.00;;;;5082660;28;20269;-70
2021/07/25 10:29:15;;;;;;;7.57;5.80;;;29.70;95.20;29.20;96339.00;;;;5087460;28;20262;-69
2021/07/25 10:32:08;;;;;;;8.45;6.15;;;29.80;92.40;29.80;96341.00;;;;5077425;28;20642;-69
2021/07/25 10:34:58;;;;;;;7.55;6.68;;;29.70;92.50;30.00;96345.00;;;;5086464;28;20212;-70
2021/07/25 10:37:49;;;;;;;6.10;5.50;;;29.80;92.00;30.50;96341.00;;;;5082955;28;20269;-70
2021/07/25 10:40:40;;;;;;;13.75;6.30;;;29.90;93.60;30.60;96346.00;;;;5080169;28;20204;-70
2021/07/25 10:43:30;;;;;;;10.05;6.97;;;30.00;92.10;31.10;96339.00;;;;5078241;28;20818;-69
2021/07/25 10:46:22;;;;;;;6.88;6.28;;;30.20;92.70;30.40;96345.00;;;;5076829;28;20207;-75
2021/07/25 10:49:16;;;;;;;7.80;7.00;;;30.50;91.40;28.90;96346.00;;;;5075409;28;20236;-73
2021/07/25 10:52:05;;;;;;;7.95;6.45;;;30.10;87.90;29.40;96347.00;;;;5075011;28;20202;-74
2021/07/25 10:54:54;;;;;;;7.32;5.50;;;30.00;90.40;28.60;96330.00;;;;5074474;28;20215;-75
2021/07/25 10:58:05;;;;;;;7.40;6.43;;;29.60;88.20;29.10;96321.00;;;;5070712;28;20229;-74
2021/07/25 11:00:56;;;;;;;7.17;6.03;;;29.40;89.70;29.70;96319.00;;;;5079315;28;20206;-74
2021/07/25 11:03:45;;;;;;;6.90;6.30;;;29.40;91.20;30.00;96331.00;;;;5067031;28;20213;-70
2021/07/25 11:06:34;;;;;;;8.03;7.03;;;29.60;90.70;30.60;96311.00;;;;5065725;28;20205;-69
2021/07/25 11:09:57;;;;;;;7.47;6.78;;;29.90;90.90;30.60;96328.00;;;;5087189;28;20872;-70
2021/07/25 11:13:22;;;;;;;7.30;5.95;;;30.20;89.80;30.50;96326.00;;;;5087185;28;20195;-70
2021/07/25 11:16:45;;;;;;;10.05;6.50;;;30.20;86.40;30.70;96312.00;;;;5086563;28;20217;-71
2021/07/25 11:19:49;;;;;;;8.30;6.57;;;30.40;86.40;31.10;96301.00;;;;4989304;28;20769;-71
2021/07/25 11:22:47;;;;;;;7.00;6.30;;;30.70;86.40;30.80;96313.00;;;;4987877;28;20218;-69
2021/07/25 11:25:36;;;;;;;7.18;6.47;;;30.90;84.40;30.70;96297.00;;;;5083246;28;20705;-69
2021/07/25 11:28:41;;;;;;;8.13;6.57;;;30.80;82.70;31.70;96304.00;;;;5094859;28;20232;-70
2021/07/25 11:31:41;;;;;;;7.18;6.13;;;31.10;82.10;31.40;96298.00;;;;5089203;28;20575;-68
2021/07/25 11:34:34;;;;;;;6.22;5.63;;;31.20;82.80;31.60;96297.00;;;;5067216;28;20596;-69
2021/07/25 11:37:36;;;;;;;7.07;5.93;;;31.30;80.60;32.50;96300.00;;;;5080881;28;20232;-69
2021/07/25 11:40:25;;;;;;;7.35;6.75;;;31.50;82.00;32.80;96293.00;;;;5083043;28;20194;-69
2021/07/25 11:43:14;;;;;;;6.88;6.28;;;31.90;80.50;32.70;96288.00;;;;5083547;28;20227;-69
2021/07/25 11:46:25;;;;;;;6.57;5.90;;;32.10;81.00;32.20;96281.00;;;;5084196;28;20194;-69
2021/07/25 11:49:18;;;;;;;6.22;5.60;;;32.10;76.80;32.60;96289.00;;;;5078451;28;20264;-69
2021/07/25 11:52:12;;;;;;;7.75;6.95;;;32.30;79.30;31.50;96270.00;;;;5083556;28;20216;-69
2021/07/25 11:55:01;;;;;;;7.45;6.75;;;32.00;76.40;32.40;96259.00;;;;5084658;28;20214;-70
2021/07/25 11:57:50;;;;;;;8.05;6.80;;;32.10;76.20;31.20;96253.00;;;;5082550;28;20221;-70
2021/07/25 12:00:39;;;;;;;7.18;6.47;;;32.20;75.50;31.50;96260.00;;;;5076940;28;20202;-70
2021/07/25 12:03:28;;;;;;;8.63;6.25;;;32.00;76.40;31.40;96249.00;;;;5082722;28;20205;-71
2021/07/25 12:06:19;;;;;;;6.68;5.97;;;31.70;75.40;30.90;96258.00;;;;5083711;28;20242;-71
2021/07/25 12:09:11;;;;;;;7.38;6.00;;;31.50;76.00;32.80;96249.00;;;;5082530;28;20221;-70
2021/07/25 12:12:19;;;;;;;8.23;6.78;;;31.70;75.20;32.60;96259.00;;;;5083798;28;20203;-71
2021/07/25 12:15:12;;;;;;;8.10;7.30;;;32.00;76.10;33.10;96254.00;;;;5081414;28;20198;-71
2021/07/25 12:18:03;;;;;;;8.38;7.50;;;32.40;77.50;31.80;96256.00;;;;5084421;28;20229;-68
2021/07/25 12:20:52;;;;;;;7.22;6.53;;;32.30;73.10;33.20;96263.00;;;;5083910;28;20207;-69
2021/07/25 12:23:42;;;;;;;7.93;7.13;;;32.50;74.40;33.50;96251.00;;;;5084105;28;20289;-69
2021/07/25 12:26:41;;;;;;;7.88;7.03;;;32.80;73.00;33.70;96249.00;;;;5079907;28;20210;-69
2021/07/25 12:29:45;;;;;;;7.82;6.95;;;33.00;73.80;33.90;96262.00;;;;5082040;28;20283;-70
2021/07/25 12:32:35;;;;;;;7.90;7.07;;;33.10;72.00;33.60;96250.00;;;;5081384;28;20219;-69
2021/07/25 12:35:25;;;;;;;7.88;6.90;;;33.30;70.90;34.60;96246.00;;;;5083808;28;20259;-69
2021/07/25 12:38:16;;;;;;;8.10;7.28;;;33.50;70.30;34.50;96272.00;;;;5080770;28;20249;-69
2021/07/25 12:41:05;;;;;;;8.50;6.38;;;33.80;69.40;34.30;96281.00;;;;5080455;28;20203;-70
2021/07/25 12:44:01;;;;;;;10.02;8.05;;;33.90;66.30;34.10;96271.00;;;;5082792;28;20231;-69
2021/07/25 12:46:50;;;;;;;8.02;7.22;;;33.80;68.30;34.60;96261.00;;;;5064906;28;20219;-70